sensor_id;sensor_type;location;lat;lon;timestamp;temperature;humidity
69281;SHT31;56392;51.082;17.080;2023-08-30T00:02:03;16.95;85.75
69281;SHT31;56392;51.082;17.080;2023-08-30T00:07:27;16.94;85.83
69281;SHT31;56392;51.082;17.080;2023-08-30T00:12:51;16.87;85.91
69281;SHT31;56392;51.082;17.080;2023-08-30T00:18:14;16.89;86.28
69281;SHT31;56392;51.082;17.080;2023-08-30T00:23:37;16.87;85.95
69281;SHT31;56392;51.082;17.080;2023-08-30T00:29:03;16.87;86.21
69281;SHT31;56392;51.082;17.080;2023-08-30T00:34:26;16.87;86.19
69281;SHT31;56392;51.082;17.080;2023-08-30T00:39:49;16.77;86.50
69281;SHT31;56392;51.082;17.080;2023-08-30T00:45:14;16.78;86.79
69281;SHT31;56392;51.082;17.080;2023-08-30T00:50:37;16.78;87.02
69281;SHT31;56392;51.082;17.080;2023-08-30T00:56:01;16.72;86.79
69281;SHT31;56392;51.082;17.080;2023-08-30T01:01:26;16.78;87.01
69281;SHT31;56392;51.082;17.080;2023-08-30T01:06:49;16.77;86.94
69281;SHT31;56392;51.082;17.080;2023-08-30T01:12:18;16.72;86.81
69281;SHT31;56392;51.082;17.080;2023-08-30T01:17:44;16.77;86.71
69281;SHT31;56392;51.082;17.080;2023-08-30T01:23:20;16.77;86.21
69281;SHT31;56392;51.082;17.080;2023-08-30T01:28:48;16.81;86.79
69281;SHT31;56392;51.082;17.080;2023-08-30T01:34:12;16.80;86.31
69281;SHT31;56392;51.082;17.080;2023-08-30T01:39:36;16.77;86.25
69281;SHT31;56392;51.082;17.080;2023-08-30T01:45:03;16.75;86.43
69281;SHT31;56392;51.082;17.080;2023-08-30T01:50:27;16.74;86.59
69281;SHT31;56392;51.082;17.080;2023-08-30T01:55:50;16.77;86.49
69281;SHT31;56392;51.082;17.080;2023-08-30T02:01:14;16.64;86.28
69281;SHT31;56392;51.082;17.080;2023-08-30T02:06:54;16.67;86.33
69281;SHT31;56392;51.082;17.080;2023-08-30T02:12:18;16.64;86.15
69281;SHT31;56392;51.082;17.080;2023-08-30T02:17:44;16.68;86.48
69281;SHT31;56392;51.082;17.080;2023-08-30T02:23:09;16.72;86.54
69281;SHT31;56392;51.082;17.080;2023-08-30T02:28:32;16.57;86.23
69281;SHT31;56392;51.082;17.080;2023-08-30T02:33:57;16.50;85.97
69281;SHT31;56392;51.082;17.080;2023-08-30T02:39:19;16.51;86.42
69281;SHT31;56392;51.082;17.080;2023-08-30T02:44:43;16.53;86.26
69281;SHT31;56392;51.082;17.080;2023-08-30T02:50:07;16.46;86.36
69281;SHT31;56392;51.082;17.080;2023-08-30T02:55:31;16.49;86.13
69281;SHT31;56392;51.082;17.080;2023-08-30T03:00:54;16.47;86.20
69281;SHT31;56392;51.082;17.080;2023-08-30T03:06:18;16.44;85.94
69281;SHT31;56392;51.082;17.080;2023-08-30T03:11:41;16.41;85.82
69281;SHT31;56392;51.082;17.080;2023-08-30T03:17:04;16.43;85.88
69281;SHT31;56392;51.082;17.080;2023-08-30T03:22:29;16.44;86.11
69281;SHT31;56392;51.082;17.080;2023-08-30T03:27:52;16.46;86.29
69281;SHT31;56392;51.082;17.080;2023-08-30T03:33:15;16.46;85.90
69281;SHT31;56392;51.082;17.080;2023-08-30T03:38:39;16.43;86.12
69281;SHT31;56392;51.082;17.080;2023-08-30T03:44:03;16.44;85.80
69281;SHT31;56392;51.082;17.080;2023-08-30T03:49:26;16.37;85.57
69281;SHT31;56392;51.082;17.080;2023-08-30T03:54:50;16.43;85.82
69281;SHT31;56392;51.082;17.080;2023-08-30T04:00:14;16.41;85.93
69281;SHT31;56392;51.082;17.080;2023-08-30T04:05:37;16.43;85.74
69281;SHT31;56392;51.082;17.080;2023-08-30T04:11:02;16.39;85.93
69281;SHT31;56392;51.082;17.080;2023-08-30T04:16:25;16.41;86.17
69281;SHT31;56392;51.082;17.080;2023-08-30T04:21:48;16.46;85.58
69281;SHT31;56392;51.082;17.080;2023-08-30T04:27:13;16.43;85.61
69281;SHT31;56392;51.082;17.080;2023-08-30T04:32:36;16.44;86.11
69281;SHT31;56392;51.082;17.080;2023-08-30T04:37:59;16.50;86.19
69281;SHT31;56392;51.082;17.080;2023-08-30T04:43:24;16.53;86.31
69281;SHT31;56392;51.082;17.080;2023-08-30T04:48:47;16.51;86.00
69281;SHT31;56392;51.082;17.080;2023-08-30T04:54:10;16.46;85.52
69281;SHT31;56392;51.082;17.080;2023-08-30T04:59:34;16.44;85.13
69281;SHT31;56392;51.082;17.080;2023-08-30T05:04:58;16.37;85.58
69281;SHT31;56392;51.082;17.080;2023-08-30T05:10:21;16.41;85.46
69281;SHT31;56392;51.082;17.080;2023-08-30T05:15:45;16.47;85.66
69281;SHT31;56392;51.082;17.080;2023-08-30T05:21:08;16.51;85.66
69281;SHT31;56392;51.082;17.080;2023-08-30T05:26:31;16.61;85.46
69281;SHT31;56392;51.082;17.080;2023-08-30T05:31:56;16.57;85.12
69281;SHT31;56392;51.082;17.080;2023-08-30T05:37:19;16.57;85.10
69281;SHT31;56392;51.082;17.080;2023-08-30T05:42:42;16.70;84.95
69281;SHT31;56392;51.082;17.080;2023-08-30T05:48:07;16.65;84.96
69281;SHT31;56392;51.082;17.080;2023-08-30T05:53:30;16.77;84.52
69281;SHT31;56392;51.082;17.080;2023-08-30T05:58:53;16.82;84.71
69281;SHT31;56392;51.082;17.080;2023-08-30T06:04:17;16.85;84.28
69281;SHT31;56392;51.082;17.080;2023-08-30T06:09:42;16.89;84.28
69281;SHT31;56392;51.082;17.080;2023-08-30T06:15:06;16.94;84.40
69281;SHT31;56392;51.082;17.080;2023-08-30T06:20:31;17.01;84.27
69281;SHT31;56392;51.082;17.080;2023-08-30T06:25:54;17.11;83.80
69281;SHT31;56392;51.082;17.080;2023-08-30T06:31:17;17.29;83.46
69281;SHT31;56392;51.082;17.080;2023-08-30T06:36:42;17.42;83.12
69281;SHT31;56392;51.082;17.080;2023-08-30T06:42:05;17.54;82.41
69281;SHT31;56392;51.082;17.080;2023-08-30T06:47:29;17.45;82.20
69281;SHT31;56392;51.082;17.080;2023-08-30T06:52:53;17.40;81.84
69281;SHT31;56392;51.082;17.080;2023-08-30T06:58:19;17.43;81.99
69281;SHT31;56392;51.082;17.080;2023-08-30T07:03:42;17.42;81.92
69281;SHT31;56392;51.082;17.080;2023-08-30T07:09:07;17.23;81.68
69281;SHT31;56392;51.082;17.080;2023-08-30T07:14:30;17.25;82.48
69281;SHT31;56392;51.082;17.080;2023-08-30T07:19:53;17.19;81.99
69281;SHT31;56392;51.082;17.080;2023-08-30T07:25:18;17.40;81.83
69281;SHT31;56392;51.082;17.080;2023-08-30T07:30:41;17.53;81.01
69281;SHT31;56392;51.082;17.080;2023-08-30T07:36:05;17.56;81.11
69281;SHT31;56392;51.082;17.080;2023-08-30T07:41:30;17.47;81.07
69281;SHT31;56392;51.082;17.080;2023-08-30T07:46:53;17.50;80.90
69281;SHT31;56392;51.082;17.080;2023-08-30T07:52:18;17.45;81.20
69281;SHT31;56392;51.082;17.080;2023-08-30T07:57:42;17.53;81.10
69281;SHT31;56392;51.082;17.080;2023-08-30T08:03:06;17.66;80.86
69281;SHT31;56392;51.082;17.080;2023-08-30T08:08:32;17.77;80.29
69281;SHT31;56392;51.082;17.080;2023-08-30T08:13:57;17.89;79.60
69281;SHT31;56392;51.082;17.080;2023-08-30T08:19:20;17.94;79.27
69281;SHT31;56392;51.082;17.080;2023-08-30T08:24:45;17.79;79.23
69281;SHT31;56392;51.082;17.080;2023-08-30T08:30:11;17.72;79.33
69281;SHT31;56392;51.082;17.080;2023-08-30T08:35:34;17.67;79.38
69281;SHT31;56392;51.082;17.080;2023-08-30T08:41:02;17.57;79.48
69281;SHT31;56392;51.082;17.080;2023-08-30T08:46:28;17.54;79.35
69281;SHT31;56392;51.082;17.080;2023-08-30T08:51:53;17.59;79.24
69281;SHT31;56392;51.082;17.080;2023-08-30T08:57:16;17.60;79.17
69281;SHT31;56392;51.082;17.080;2023-08-30T09:02:41;17.54;79.10
69281;SHT31;56392;51.082;17.080;2023-08-30T09:08:06;17.53;79.18
69281;SHT31;56392;51.082;17.080;2023-08-30T09:13:29;17.50;79.37
69281;SHT31;56392;51.082;17.080;2023-08-30T09:19:01;17.46;79.46
69281;SHT31;56392;51.082;17.080;2023-08-30T09:24:37;17.46;79.86
69281;SHT31;56392;51.082;17.080;2023-08-30T09:30:00;17.53;79.35
69281;SHT31;56392;51.082;17.080;2023-08-30T09:35:26;17.54;79.28
69281;SHT31;56392;51.082;17.080;2023-08-30T09:41:02;17.53;79.63
69281;SHT31;56392;51.082;17.080;2023-08-30T09:46:25;17.40;79.78
69281;SHT31;56392;51.082;17.080;2023-08-30T09:51:51;17.43;80.25
69281;SHT31;56392;51.082;17.080;2023-08-30T09:57:15;17.39;80.37
69281;SHT31;56392;51.082;17.080;2023-08-30T10:02:39;17.49;79.97
69281;SHT31;56392;51.082;17.080;2023-08-30T10:08:06;17.54;80.04
69281;SHT31;56392;51.082;17.080;2023-08-30T10:13:34;17.60;80.08
69281;SHT31;56392;51.082;17.080;2023-08-30T10:19:01;17.53;79.40
69281;SHT31;56392;51.082;17.080;2023-08-30T10:24:28;17.56;79.19
69281;SHT31;56392;51.082;17.080;2023-08-30T10:29:53;17.65;79.72
69281;SHT31;56392;51.082;17.080;2023-08-30T10:35:18;17.66;79.18
69281;SHT31;56392;51.082;17.080;2023-08-30T10:40:47;17.63;79.13
69281;SHT31;56392;51.082;17.080;2023-08-30T10:46:10;17.82;79.02
69281;SHT31;56392;51.082;17.080;2023-08-30T10:51:37;18.00;78.88
69281;SHT31;56392;51.082;17.080;2023-08-30T10:57:04;18.10;78.20
69281;SHT31;56392;51.082;17.080;2023-08-30T11:02:27;18.04;78.12
69281;SHT31;56392;51.082;17.080;2023-08-30T11:07:51;17.97;78.44
69281;SHT31;56392;51.082;17.080;2023-08-30T11:13:19;17.87;78.65
69281;SHT31;56392;51.082;17.080;2023-08-30T11:18:42;17.82;78.51
69281;SHT31;56392;51.082;17.080;2023-08-30T11:24:06;17.93;78.92
69281;SHT31;56392;51.082;17.080;2023-08-30T11:29:31;18.25;78.63
69281;SHT31;56392;51.082;17.080;2023-08-30T11:34:57;18.73;77.69
69281;SHT31;56392;51.082;17.080;2023-08-30T11:40:21;18.98;76.51
69281;SHT31;56392;51.082;17.080;2023-08-30T11:45:46;19.06;75.87
69281;SHT31;56392;51.082;17.080;2023-08-30T11:51:09;19.00;76.22
69281;SHT31;56392;51.082;17.080;2023-08-30T11:56:33;18.91;76.45
69281;SHT31;56392;51.082;17.080;2023-08-30T12:01:58;19.03;75.27
69281;SHT31;56392;51.082;17.080;2023-08-30T12:07:22;19.03;75.52
69281;SHT31;56392;51.082;17.080;2023-08-30T12:12:46;19.12;74.81
69281;SHT31;56392;51.082;17.080;2023-08-30T12:18:10;19.22;74.56
69281;SHT31;56392;51.082;17.080;2023-08-30T12:23:33;19.35;74.14
69281;SHT31;56392;51.082;17.080;2023-08-30T12:28:57;19.49;73.40
69281;SHT31;56392;51.082;17.080;2023-08-30T12:34:21;19.30;74.57
69281;SHT31;56392;51.082;17.080;2023-08-30T12:39:44;19.09;74.64
69281;SHT31;56392;51.082;17.080;2023-08-30T12:45:08;19.09;74.71
69281;SHT31;56392;51.082;17.080;2023-08-30T12:50:33;19.10;74.65
69281;SHT31;56392;51.082;17.080;2023-08-30T12:55:57;19.19;73.41
69281;SHT31;56392;51.082;17.080;2023-08-30T13:01:20;19.30;73.99
69281;SHT31;56392;51.082;17.080;2023-08-30T13:06:45;19.23;74.29
69281;SHT31;56392;51.082;17.080;2023-08-30T13:12:08;19.22;74.75
69281;SHT31;56392;51.082;17.080;2023-08-30T13:17:31;19.10;74.88
69281;SHT31;56392;51.082;17.080;2023-08-30T13:22:57;18.93;74.43
69281;SHT31;56392;51.082;17.080;2023-08-30T13:28:20;19.02;74.22
69281;SHT31;56392;51.082;17.080;2023-08-30T13:33:44;19.27;74.44
69281;SHT31;56392;51.082;17.080;2023-08-30T13:39:09;19.41;74.16
69281;SHT31;56392;51.082;17.080;2023-08-30T13:44:33;19.37;74.38
69281;SHT31;56392;51.082;17.080;2023-08-30T13:49:59;19.17;75.27
69281;SHT31;56392;51.082;17.080;2023-08-30T13:55:24;19.03;74.79
69281;SHT31;56392;51.082;17.080;2023-08-30T14:00:47;19.07;75.11
69281;SHT31;56392;51.082;17.080;2023-08-30T14:06:10;19.22;74.63
69281;SHT31;56392;51.082;17.080;2023-08-30T14:11:34;19.41;74.34
69281;SHT31;56392;51.082;17.080;2023-08-30T14:16:59;19.58;73.20
69281;SHT31;56392;51.082;17.080;2023-08-30T14:22:22;19.50;72.86
69281;SHT31;56392;51.082;17.080;2023-08-30T14:27:47;19.46;73.50
69281;SHT31;56392;51.082;17.080;2023-08-30T14:33:09;19.40;73.14
69281;SHT31;56392;51.082;17.080;2023-08-30T14:38:33;19.38;72.87
69281;SHT31;56392;51.082;17.080;2023-08-30T14:43:59;19.35;73.72
69281;SHT31;56392;51.082;17.080;2023-08-30T14:49:22;19.34;73.40
69281;SHT31;56392;51.082;17.080;2023-08-30T14:54:45;19.33;73.20
69281;SHT31;56392;51.082;17.080;2023-08-30T15:00:11;19.23;73.12
69281;SHT31;56392;51.082;17.080;2023-08-30T15:05:34;19.16;73.45
69281;SHT31;56392;51.082;17.080;2023-08-30T15:10:59;19.07;74.25
69281;SHT31;56392;51.082;17.080;2023-08-30T15:16:25;19.04;74.08
69281;SHT31;56392;51.082;17.080;2023-08-30T15:21:49;18.91;73.96
69281;SHT31;56392;51.082;17.080;2023-08-30T15:27:12;18.75;74.14
69281;SHT31;56392;51.082;17.080;2023-08-30T15:32:37;18.75;74.07
69281;SHT31;56392;51.082;17.080;2023-08-30T15:38:00;18.69;74.42
69281;SHT31;56392;51.082;17.080;2023-08-30T15:43:23;18.66;74.61
69281;SHT31;56392;51.082;17.080;2023-08-30T15:48:48;18.59;74.78
69281;SHT31;56392;51.082;17.080;2023-08-30T15:54:11;18.52;76.03
69281;SHT31;56392;51.082;17.080;2023-08-30T15:59:34;18.52;76.22
69281;SHT31;56392;51.082;17.080;2023-08-30T16:04:59;18.51;77.00
69281;SHT31;56392;51.082;17.080;2023-08-30T16:10:22;18.45;76.74
69281;SHT31;56392;51.082;17.080;2023-08-30T16:15:45;18.47;77.00
69281;SHT31;56392;51.082;17.080;2023-08-30T16:21:09;18.48;77.51
69281;SHT31;56392;51.082;17.080;2023-08-30T16:26:33;18.45;77.54
69281;SHT31;56392;51.082;17.080;2023-08-30T16:31:56;18.48;77.12
69281;SHT31;56392;51.082;17.080;2023-08-30T16:37:21;18.45;77.29
69281;SHT31;56392;51.082;17.080;2023-08-30T16:42:44;18.44;76.91
69281;SHT31;56392;51.082;17.080;2023-08-30T16:48:07;18.35;77.90
69281;SHT31;56392;51.082;17.080;2023-08-30T16:53:33;18.31;77.89
69281;SHT31;56392;51.082;17.080;2023-08-30T16:58:56;18.32;77.95
69281;SHT31;56392;51.082;17.080;2023-08-30T17:04:19;18.25;78.40
69281;SHT31;56392;51.082;17.080;2023-08-30T17:09:44;18.24;78.70
69281;SHT31;56392;51.082;17.080;2023-08-30T17:15:07;18.15;79.15
69281;SHT31;56392;51.082;17.080;2023-08-30T17:20:31;18.10;79.41
69281;SHT31;56392;51.082;17.080;2023-08-30T17:25:55;18.11;78.84
69281;SHT31;56392;51.082;17.080;2023-08-30T17:31:19;18.11;78.70
69281;SHT31;56392;51.082;17.080;2023-08-30T17:36:44;18.07;78.96
69281;SHT31;56392;51.082;17.080;2023-08-30T17:42:10;17.98;78.79
69281;SHT31;56392;51.082;17.080;2023-08-30T17:47:34;17.91;78.84
69281;SHT31;56392;51.082;17.080;2023-08-30T17:52:57;17.79;79.00
69281;SHT31;56392;51.082;17.080;2023-08-30T17:58:21;17.72;79.22
69281;SHT31;56392;51.082;17.080;2023-08-30T18:03:44;17.69;79.75
69281;SHT31;56392;51.082;17.080;2023-08-30T18:09:07;17.62;79.93
69281;SHT31;56392;51.082;17.080;2023-08-30T18:14:32;17.52;80.07
69281;SHT31;56392;51.082;17.080;2023-08-30T18:19:58;17.46;80.16
69281;SHT31;56392;51.082;17.080;2023-08-30T18:25:21;17.42;80.49
69281;SHT31;56392;51.082;17.080;2023-08-30T18:30:46;17.38;80.71
69281;SHT31;56392;51.082;17.080;2023-08-30T18:36:09;17.31;81.12
69281;SHT31;56392;51.082;17.080;2023-08-30T18:41:32;17.29;81.30
69281;SHT31;56392;51.082;17.080;2023-08-30T18:46:56;17.29;81.43
69281;SHT31;56392;51.082;17.080;2023-08-30T18:52:20;17.31;81.81
69281;SHT31;56392;51.082;17.080;2023-08-30T18:57:43;17.31;81.72
69281;SHT31;56392;51.082;17.080;2023-08-30T19:03:08;17.25;82.22
69281;SHT31;56392;51.082;17.080;2023-08-30T19:08:31;17.29;82.42
69281;SHT31;56392;51.082;17.080;2023-08-30T19:13:54;17.32;82.30
69281;SHT31;56392;51.082;17.080;2023-08-30T19:19:18;17.35;82.30
69281;SHT31;56392;51.082;17.080;2023-08-30T19:24:42;17.40;82.17
69281;SHT31;56392;51.082;17.080;2023-08-30T19:30:06;17.40;81.92
69281;SHT31;56392;51.082;17.080;2023-08-30T19:35:33;17.38;82.00
69281;SHT31;56392;51.082;17.080;2023-08-30T19:40:56;17.36;82.35
69281;SHT31;56392;51.082;17.080;2023-08-30T19:46:21;17.40;82.15
69281;SHT31;56392;51.082;17.080;2023-08-30T20:02:08;17.36;82.88
69281;SHT31;56392;51.082;17.080;2023-08-30T20:07:32;17.29;82.94
69281;SHT31;56392;51.082;17.080;2023-08-30T20:12:55;17.28;83.03
69281;SHT31;56392;51.082;17.080;2023-08-30T20:18:19;17.22;83.26
69281;SHT31;56392;51.082;17.080;2023-08-30T20:23:43;17.23;83.36
69281;SHT31;56392;51.082;17.080;2023-08-30T20:29:06;17.23;83.44
69281;SHT31;56392;51.082;17.080;2023-08-30T20:34:32;17.22;83.46
69281;SHT31;56392;51.082;17.080;2023-08-30T20:39:55;17.22;83.34
69281;SHT31;56392;51.082;17.080;2023-08-30T20:45:19;17.22;83.26
69281;SHT31;56392;51.082;17.080;2023-08-30T20:50:44;17.16;83.28
69281;SHT31;56392;51.082;17.080;2023-08-30T20:56:08;17.11;83.52
69281;SHT31;56392;51.082;17.080;2023-08-30T21:01:32;17.10;83.18
69281;SHT31;56392;51.082;17.080;2023-08-30T21:06:57;17.07;82.89
69281;SHT31;56392;51.082;17.080;2023-08-30T21:12:20;17.05;82.91
69281;SHT31;56392;51.082;17.080;2023-08-30T21:17:43;17.05;83.14
69281;SHT31;56392;51.082;17.080;2023-08-30T21:23:10;17.07;83.20
69281;SHT31;56392;51.082;17.080;2023-08-30T21:28:33;17.08;83.18
69281;SHT31;56392;51.082;17.080;2023-08-30T21:33:56;17.07;82.81
69281;SHT31;56392;51.082;17.080;2023-08-30T21:39:22;17.08;82.80
69281;SHT31;56392;51.082;17.080;2023-08-30T21:44:45;17.05;82.95
69281;SHT31;56392;51.082;17.080;2023-08-30T21:50:09;16.98;82.89
69281;SHT31;56392;51.082;17.080;2023-08-30T21:55:33;17.01;82.81
69281;SHT31;56392;51.082;17.080;2023-08-30T22:00:57;16.96;82.96
69281;SHT31;56392;51.082;17.080;2023-08-30T22:06:20;16.96;82.94
69281;SHT31;56392;51.082;17.080;2023-08-30T22:11:46;16.95;82.88
69281;SHT31;56392;51.082;17.080;2023-08-30T22:17:09;16.89;82.62
69281;SHT31;56392;51.082;17.080;2023-08-30T22:22:35;16.89;82.93
69281;SHT31;56392;51.082;17.080;2023-08-30T22:28:00;16.88;82.95
69281;SHT31;56392;51.082;17.080;2023-08-30T22:33:24;16.84;82.97
69281;SHT31;56392;51.082;17.080;2023-08-30T22:38:49;16.80;83.24
69281;SHT31;56392;51.082;17.080;2023-08-30T22:44:13;16.74;83.11
69281;SHT31;56392;51.082;17.080;2023-08-30T22:49:36;16.74;83.40
69281;SHT31;56392;51.082;17.080;2023-08-30T22:55:00;16.72;83.24
69281;SHT31;56392;51.082;17.080;2023-08-30T23:00:29;16.71;83.31
69281;SHT31;56392;51.082;17.080;2023-08-30T23:05:52;16.72;83.36
69281;SHT31;56392;51.082;17.080;2023-08-30T23:11:15;16.71;83.36
69281;SHT31;56392;51.082;17.080;2023-08-30T23:16:42;16.67;83.55
69281;SHT31;56392;51.082;17.080;2023-08-30T23:22:06;16.64;83.22
69281;SHT31;56392;51.082;17.080;2023-08-30T23:27:29;16.67;82.85
69281;SHT31;56392;51.082;17.080;2023-08-30T23:32:55;16.59;82.70
69281;SHT31;56392;51.082;17.080;2023-08-30T23:38:18;16.59;83.26
69281;SHT31;56392;51.082;17.080;2023-08-30T23:43:41;16.56;83.70
69281;SHT31;56392;51.082;17.080;2023-08-30T23:49:06;16.59;83.59
69281;SHT31;56392;51.082;17.080;2023-08-30T23:54:29;16.57;83.60
69281;SHT31;56392;51.082;17.080;2023-08-30T23:59:53;16.57;83.71
